createdAt,value
2022-08-01T00:00:41.158Z,21.00
2022-08-01T00:01:41.148Z,21.00
2022-08-01T00:02:41.254Z,21.03
2022-08-01T00:03:41.108Z,21.01
2022-08-01T00:04:41.105Z,21.03
2022-08-01T00:05:41.090Z,20.98
2022-08-01T00:06:41.079Z,21.00
2022-08-01T00:07:41.050Z,20.97
2022-08-01T00:08:41.041Z,20.97
2022-08-01T00:09:41.032Z,20.97
2022-08-01T00:10:41.031Z,20.93
2022-08-01T00:11:40.999Z,20.90
2022-08-01T00:12:41.004Z,20.92
2022-08-01T00:13:40.986Z,20.89
2022-08-01T00:14:40.967Z,20.90
2022-08-01T00:15:40.963Z,20.88
2022-08-01T00:16:41.943Z,20.86
2022-08-01T00:17:40.924Z,20.83
2022-08-01T00:18:40.928Z,20.80
2022-08-01T00:19:40.944Z,20.77
2022-08-01T00:20:40.898Z,20.77
2022-08-01T00:21:40.869Z,20.75
2022-08-01T00:22:41.866Z,20.73
2022-08-01T00:23:40.843Z,20.79
2022-08-01T00:24:40.856Z,20.74
2022-08-01T00:25:40.823Z,20.75
2022-08-01T00:26:40.826Z,20.75
2022-08-01T00:27:40.799Z,20.74
2022-08-01T00:28:40.778Z,20.73
2022-08-01T00:30:04.673Z,20.80
2022-08-01T00:30:41.763Z,20.75
2022-08-01T00:31:40.750Z,20.77
2022-08-01T00:32:40.729Z,20.75
2022-08-01T00:33:40.712Z,20.80
2022-08-01T00:34:40.711Z,20.83
2022-08-01T00:35:40.695Z,20.83
2022-08-01T00:36:40.710Z,20.85
2022-08-01T00:37:40.662Z,20.83
2022-08-01T00:38:40.652Z,20.86
2022-08-01T00:39:40.670Z,20.83
2022-08-01T00:40:40.665Z,20.85
2022-08-01T00:41:40.612Z,20.86
2022-08-01T00:42:43.679Z,20.86
2022-08-01T00:43:40.598Z,20.85
2022-08-01T00:44:40.595Z,20.85
2022-08-01T00:45:40.567Z,20.82
2022-08-01T00:46:40.575Z,20.83
2022-08-01T00:47:40.535Z,20.77
2022-08-01T00:48:40.525Z,20.75
2022-08-01T00:49:40.660Z,20.79
2022-08-01T00:50:40.500Z,20.80
2022-08-01T00:51:40.488Z,20.77
2022-08-01T00:52:40.477Z,20.79
2022-08-01T00:53:51.601Z,20.74
2022-08-01T00:54:41.464Z,20.74
2022-08-01T00:55:40.429Z,20.73
2022-08-01T00:56:40.428Z,20.71
2022-08-01T00:58:04.968Z,20.73
2022-08-01T00:58:41.397Z,20.73
2022-08-01T00:59:41.423Z,20.73
2022-08-01T01:00:53.673Z,20.79
2022-08-01T01:01:46.790Z,20.75
2022-08-01T01:02:41.342Z,20.79
2022-08-01T01:03:58.017Z,20.80
2022-08-01T01:04:41.328Z,20.85
2022-08-01T01:05:40.302Z,20.83
2022-08-01T01:06:40.303Z,20.80
2022-08-01T01:07:49.577Z,20.80
2022-08-01T01:08:41.268Z,20.82
2022-08-01T01:09:40.253Z,20.79
2022-08-01T01:10:40.244Z,20.80
2022-08-01T01:12:15.893Z,20.83
2022-08-01T01:12:41.826Z,20.82
2022-08-01T01:13:50.484Z,20.79
2022-08-01T01:14:41.195Z,20.80
2022-08-01T01:15:40.155Z,20.79
2022-08-01T01:16:40.179Z,20.82
2022-08-01T01:17:50.504Z,20.82
2022-08-01T01:18:41.166Z,20.80
2022-08-01T01:19:40.115Z,20.80
2022-08-01T01:20:40.108Z,20.82
2022-08-01T01:21:40.097Z,20.83
2022-08-01T01:22:40.084Z,20.88
2022-08-01T01:23:40.067Z,20.80
2022-08-01T01:24:40.106Z,20.83
2022-08-01T01:25:40.036Z,20.85
2022-08-01T01:26:40.039Z,20.82
2022-08-01T01:27:40.009Z,20.80
2022-08-01T01:28:39.990Z,20.80
2022-08-01T01:30:00.237Z,20.75
2022-08-01T01:30:40.970Z,20.82
2022-08-01T01:31:39.953Z,20.82
2022-08-01T01:32:39.960Z,20.83
2022-08-01T01:33:47.285Z,20.83
2022-08-01T01:34:40.934Z,20.82
2022-08-01T01:35:39.905Z,20.88
2022-08-01T01:36:39.901Z,20.80
2022-08-01T01:37:39.883Z,20.85
2022-08-01T01:38:39.873Z,20.82
2022-08-01T01:39:39.864Z,20.83
2022-08-01T01:40:40.846Z,20.80
2022-08-01T01:41:39.825Z,20.83
2022-08-01T01:42:39.816Z,20.83
2022-08-01T01:43:39.814Z,20.85
2022-08-01T01:44:39.811Z,20.86
2022-08-01T01:45:39.766Z,20.86
2022-08-01T01:46:39.767Z,20.89
2022-08-01T01:47:39.752Z,20.88
2022-08-01T01:48:39.744Z,20.83
2022-08-01T01:49:39.738Z,20.85
2022-08-01T01:50:39.709Z,20.83
2022-08-01T01:51:39.698Z,20.80
2022-08-01T01:52:39.710Z,20.77
2022-08-01T01:53:39.670Z,20.80
2022-08-01T01:54:39.671Z,20.74
2022-08-01T01:55:49.082Z,20.73
2022-08-01T01:56:40.663Z,20.75
2022-08-01T01:57:39.621Z,20.74
2022-08-01T01:58:39.623Z,20.73
2022-08-01T01:59:39.601Z,20.71
2022-08-01T02:00:39.592Z,20.68
2022-08-01T02:02:05.374Z,20.65
2022-08-01T02:02:40.628Z,20.58
2022-08-01T02:03:39.544Z,20.60
2022-08-01T02:04:39.524Z,20.60
2022-08-01T02:05:39.514Z,20.67
2022-08-01T02:06:39.524Z,20.63
2022-08-01T02:07:39.494Z,20.61
2022-08-01T02:08:39.493Z,20.64
2022-08-01T02:09:39.456Z,20.65
2022-08-01T02:10:39.464Z,20.70
2022-08-01T02:12:08.316Z,20.68
2022-08-01T02:12:40.419Z,20.70
2022-08-01T02:13:39.414Z,20.70
2022-08-01T02:14:39.387Z,20.70
2022-08-01T02:15:39.401Z,20.70
2022-08-01T02:16:40.377Z,20.70
2022-08-01T02:17:39.359Z,20.71
2022-08-01T02:18:39.374Z,20.73
2022-08-01T02:19:39.350Z,20.79
2022-08-01T02:20:39.310Z,20.74
2022-08-01T02:21:39.302Z,20.77
2022-08-01T02:22:39.291Z,20.75
2022-08-01T02:23:39.291Z,20.75
2022-08-01T02:24:39.262Z,20.74
2022-08-01T02:25:39.254Z,20.75
2022-08-01T02:26:40.252Z,20.77
2022-08-01T02:27:39.223Z,20.75
2022-08-01T02:28:39.224Z,20.71
2022-08-01T02:29:39.208Z,20.75
2022-08-01T02:30:39.190Z,20.71
2022-08-01T02:31:39.173Z,20.75
2022-08-01T02:32:39.155Z,20.75
2022-08-01T02:33:39.172Z,20.73
2022-08-01T02:34:39.136Z,20.74
2022-08-01T02:36:30.376Z,20.68
2022-08-01T02:36:40.116Z,20.68
2022-08-01T02:37:42.983Z,20.67
2022-08-01T02:38:40.097Z,20.65
2022-08-01T02:39:39.069Z,20.61
2022-08-01T02:40:39.056Z,20.58
2022-08-01T02:41:39.059Z,20.60
2022-08-01T02:42:39.029Z,20.58
2022-08-01T02:43:39.049Z,20.63
2022-08-01T02:44:39.012Z,20.60
2022-08-01T02:45:38.998Z,20.58
2022-08-01T02:46:38.988Z,20.60
2022-08-01T02:47:38.972Z,20.63
2022-08-01T02:48:38.962Z,20.63
2022-08-01T02:49:38.942Z,20.60
2022-08-01T02:50:38.922Z,20.58
2022-08-01T02:51:38.932Z,20.52
2022-08-01T02:52:38.902Z,20.55
2022-08-01T02:53:43.825Z,20.56
2022-08-01T02:54:39.874Z,20.52
2022-08-01T02:55:38.874Z,20.48
2022-08-01T02:56:38.864Z,20.46
2022-08-01T02:57:51.817Z,20.52
2022-08-01T02:58:39.835Z,20.52
2022-08-01T02:59:38.827Z,20.53
2022-08-01T03:00:38.796Z,20.52
2022-08-01T03:01:38.837Z,20.58
2022-08-01T03:02:38.788Z,20.52
2022-08-01T03:03:38.782Z,20.53
2022-08-01T03:04:38.747Z,20.52
2022-08-01T03:05:38.739Z,20.53
2022-08-01T03:06:38.731Z,20.53
2022-08-01T03:07:38.991Z,20.52
2022-08-01T03:08:38.699Z,20.52
2022-08-01T03:09:38.678Z,20.58
2022-08-01T03:10:38.680Z,20.48
2022-08-01T03:11:38.658Z,20.48
2022-08-01T03:12:38.643Z,20.48
2022-08-01T03:13:38.632Z,20.50
2022-08-01T03:14:38.626Z,20.46
2022-08-01T03:15:38.607Z,20.39
2022-08-01T03:16:38.608Z,20.34
2022-08-01T03:17:38.652Z,20.30
2022-08-01T03:18:38.573Z,20.29
2022-08-01T03:19:39.504Z,20.33
2022-08-01T03:20:38.534Z,20.30
2022-08-01T03:21:38.524Z,20.36
2022-08-01T03:22:38.521Z,20.32
2022-08-01T03:23:38.671Z,20.33
2022-08-01T03:24:38.489Z,20.30
2022-08-01T03:25:38.475Z,20.29
2022-08-01T03:26:38.473Z,20.25
2022-08-01T03:27:38.446Z,20.25
2022-08-01T03:28:38.434Z,20.25
2022-08-01T03:29:38.417Z,20.25
2022-08-01T03:30:38.408Z,20.25
2022-08-01T03:31:38.398Z,20.29
2022-08-01T03:32:38.416Z,20.25
2022-08-01T03:33:38.376Z,20.25
2022-08-01T03:34:38.348Z,20.26
2022-08-01T03:35:38.347Z,20.18
2022-08-01T03:36:38.340Z,20.18
2022-08-01T03:37:45.717Z,20.23
2022-08-01T03:38:39.300Z,20.25
2022-08-01T03:39:38.291Z,20.17
2022-08-01T03:40:38.273Z,20.12
2022-08-01T03:41:39.253Z,20.14
2022-08-01T03:42:38.252Z,20.15
2022-08-01T03:43:38.248Z,20.14
2022-08-01T03:44:38.238Z,20.14
2022-08-01T03:45:38.214Z,20.18
2022-08-01T03:46:38.204Z,20.19
2022-08-01T03:47:41.979Z,20.27
2022-08-01T03:48:39.174Z,20.30
2022-08-01T03:49:38.163Z,20.34
2022-08-01T03:50:38.145Z,20.34
2022-08-01T03:51:38.163Z,20.32
2022-08-01T03:52:38.127Z,20.36
2022-08-01T03:53:39.567Z,20.29
2022-08-01T03:54:38.087Z,20.33
2022-08-01T03:55:38.077Z,20.32
2022-08-01T03:56:38.078Z,20.36
2022-08-01T03:57:38.059Z,20.34
2022-08-01T03:58:38.039Z,20.33
2022-08-01T03:59:38.031Z,20.33
2022-08-01T04:00:38.011Z,20.30
2022-08-01T04:01:38.127Z,20.27
2022-08-01T04:02:38.001Z,20.33
2022-08-01T04:03:41.445Z,20.30
2022-08-01T04:04:38.996Z,20.34
2022-08-01T04:05:37.951Z,20.33
2022-08-01T04:06:37.949Z,20.32
2022-08-01T04:07:37.978Z,20.33
2022-08-01T04:08:37.929Z,20.29
2022-08-01T04:09:37.903Z,20.30
2022-08-01T04:10:37.902Z,20.30
2022-08-01T04:11:37.885Z,20.32
2022-08-01T04:12:37.864Z,20.33
2022-08-01T04:13:38.454Z,20.37
2022-08-01T04:14:37.834Z,20.39
2022-08-01T04:15:37.826Z,20.33
2022-08-01T04:16:37.817Z,20.37
2022-08-01T04:17:37.802Z,20.34
2022-08-01T04:18:37.776Z,20.34
2022-08-01T04:19:37.796Z,20.39
2022-08-01T04:20:37.798Z,20.37
2022-08-01T04:21:37.748Z,20.46
2022-08-01T04:22:37.739Z,20.41
2022-08-01T04:23:37.729Z,20.42
2022-08-01T04:24:37.705Z,20.41
2022-08-01T04:25:37.699Z,20.44
2022-08-01T04:26:37.686Z,20.48
2022-08-01T04:27:49.885Z,20.48
2022-08-01T04:28:38.650Z,20.49
2022-08-01T04:29:37.640Z,20.44
2022-08-01T04:30:37.631Z,20.42
2022-08-01T04:31:37.610Z,20.46
2022-08-01T04:32:37.601Z,20.42
2022-08-01T04:33:37.594Z,20.48
2022-08-01T04:34:37.585Z,20.53
2022-08-01T04:36:02.293Z,20.55
2022-08-01T04:36:38.564Z,20.60
2022-08-01T04:37:37.548Z,20.56
2022-08-01T04:38:37.541Z,20.60
2022-08-01T04:39:50.422Z,20.60
2022-08-01T04:40:38.520Z,20.63
2022-08-01T04:41:37.485Z,20.64
2022-08-01T04:42:37.705Z,20.65
2022-08-01T04:43:37.455Z,20.65
2022-08-01T04:44:37.436Z,20.64
2022-08-01T04:45:37.451Z,20.65
2022-08-01T04:46:37.425Z,20.61
2022-08-01T04:47:37.417Z,20.63
2022-08-01T04:48:37.387Z,20.63
2022-08-01T04:49:47.716Z,20.53
2022-08-01T04:50:38.355Z,20.55
2022-08-01T04:51:37.371Z,20.56
2022-08-01T04:52:37.349Z,20.55
2022-08-01T04:53:37.328Z,20.58
2022-08-01T04:54:37.310Z,20.58
2022-08-01T04:55:37.312Z,20.60
2022-08-01T04:56:37.299Z,20.53
2022-08-01T04:57:37.281Z,20.48
2022-08-01T04:58:37.256Z,20.49
2022-08-01T04:59:37.257Z,20.50
2022-08-01T05:00:37.231Z,20.52
2022-08-01T05:01:37.347Z,20.50
2022-08-01T05:02:37.221Z,20.49
2022-08-01T05:03:38.971Z,20.44
2022-08-01T05:04:37.195Z,20.46
2022-08-01T05:05:37.192Z,20.48
2022-08-01T05:06:37.212Z,20.44
2022-08-01T05:07:44.215Z,20.39
2022-08-01T05:08:38.132Z,20.37
2022-08-01T05:09:37.129Z,20.41
2022-08-01T05:10:37.117Z,20.42
2022-08-01T05:11:37.117Z,20.41
2022-08-01T05:12:37.097Z,20.44
2022-08-01T05:13:37.072Z,20.46
2022-08-01T05:14:37.061Z,20.42
2022-08-01T05:15:37.034Z,20.46
2022-08-01T05:16:37.027Z,20.44
2022-08-01T05:17:37.021Z,20.49
2022-08-01T05:18:37.001Z,20.50
2022-08-01T05:19:36.988Z,20.55
2022-08-01T05:20:36.969Z,20.56
2022-08-01T05:21:36.960Z,20.56
2022-08-01T05:22:36.959Z,20.60
2022-08-01T05:23:42.900Z,20.68
2022-08-01T05:24:37.928Z,20.70
2022-08-01T05:25:56.667Z,20.67
2022-08-01T05:26:37.901Z,20.64
2022-08-01T05:27:36.891Z,20.68
2022-08-01T05:28:36.863Z,20.65
2022-08-01T05:29:40.228Z,20.63
2022-08-01T05:30:37.872Z,20.65
2022-08-01T05:31:36.835Z,20.67
2022-08-01T05:32:36.824Z,20.70
2022-08-01T05:33:36.821Z,20.75
2022-08-01T05:34:36.805Z,20.74
2022-08-01T05:35:48.997Z,20.77
2022-08-01T05:36:37.775Z,20.80
2022-08-01T05:37:36.785Z,20.77
2022-08-01T05:38:36.735Z,20.79
2022-08-01T05:39:36.727Z,20.75
2022-08-01T05:40:36.719Z,20.74
2022-08-01T05:41:36.697Z,20.77
2022-08-01T05:42:36.689Z,20.77
2022-08-01T05:43:36.677Z,20.75
2022-08-01T05:44:36.659Z,20.75
2022-08-01T05:45:36.649Z,20.75
2022-08-01T05:46:36.684Z,20.77
2022-08-01T05:47:36.629Z,20.67
2022-08-01T05:48:37.617Z,20.68
2022-08-01T05:49:36.655Z,20.70
2022-08-01T05:50:36.571Z,20.65
2022-08-01T05:51:36.579Z,20.68
2022-08-01T05:52:36.572Z,20.68
2022-08-01T05:53:36.551Z,20.74
2022-08-01T05:54:36.571Z,20.88
2022-08-01T05:55:36.571Z,20.92
2022-08-01T05:56:36.502Z,20.95
2022-08-01T05:57:36.513Z,20.95
2022-08-01T05:58:36.471Z,21.10
2022-08-01T05:59:36.504Z,21.16
2022-08-01T06:00:36.461Z,21.26
2022-08-01T06:01:36.513Z,21.37
2022-08-01T06:02:36.485Z,21.48
2022-08-01T06:03:36.459Z,21.59
2022-08-01T06:04:36.394Z,21.69
2022-08-01T06:05:36.387Z,21.84
2022-08-01T06:06:36.385Z,21.93
2022-08-01T06:07:36.374Z,21.97
2022-08-01T06:08:36.337Z,22.01
2022-08-01T06:09:36.336Z,22.03
2022-08-01T06:10:36.327Z,21.98
2022-08-01T06:11:36.319Z,21.93
2022-08-01T06:12:36.301Z,21.80
2022-08-01T06:13:44.930Z,21.67
2022-08-01T06:14:37.270Z,21.55
2022-08-01T06:15:36.259Z,21.51
2022-08-01T06:16:36.248Z,21.53
2022-08-01T06:17:36.240Z,21.62
2022-08-01T06:18:36.211Z,21.69
2022-08-01T06:19:36.205Z,21.78
2022-08-01T06:20:36.202Z,21.71
2022-08-01T06:21:36.172Z,21.62
2022-08-01T06:22:36.176Z,21.62
2022-08-01T06:23:36.168Z,21.58
2022-08-01T06:24:36.133Z,21.67
2022-08-01T06:25:36.123Z,21.74
2022-08-01T06:26:36.114Z,21.82
2022-08-01T06:27:36.103Z,21.90
2022-08-01T06:28:36.095Z,21.84
2022-08-01T06:29:36.080Z,21.81
2022-08-01T06:30:36.057Z,21.88
2022-08-01T06:31:36.048Z,21.82
2022-08-01T06:32:36.054Z,21.85
2022-08-01T06:33:36.026Z,21.67
2022-08-01T06:34:36.029Z,21.56
2022-08-01T06:35:35.988Z,21.50
2022-08-01T06:36:35.986Z,21.35
2022-08-01T06:37:35.969Z,21.34
2022-08-01T06:38:35.975Z,21.30
2022-08-01T06:39:35.944Z,21.38
2022-08-01T06:40:35.960Z,21.47
2022-08-01T06:41:35.941Z,21.56
2022-08-01T06:42:35.926Z,21.60
2022-08-01T06:43:35.933Z,21.67
2022-08-01T06:44:35.910Z,21.69
2022-08-01T06:45:35.861Z,21.77
2022-08-01T06:46:35.851Z,21.82
2022-08-01T06:47:35.838Z,21.90
2022-08-01T06:48:35.850Z,21.85
2022-08-01T06:49:35.925Z,21.78
2022-08-01T06:50:35.805Z,21.78
2022-08-01T06:51:35.831Z,21.82
2022-08-01T06:52:35.821Z,21.84
2022-08-01T06:53:36.691Z,21.91
2022-08-01T06:54:35.754Z,21.93
2022-08-01T06:55:35.735Z,21.96
2022-08-01T06:56:35.727Z,22.01
2022-08-01T06:57:35.715Z,22.04
2022-08-01T06:58:35.806Z,22.11
2022-08-01T06:59:35.696Z,22.11
2022-08-01T07:00:35.743Z,22.09
2022-08-01T07:01:35.714Z,22.16
2022-08-01T07:02:35.666Z,22.23
2022-08-01T07:03:53.343Z,22.36
2022-08-01T07:04:36.637Z,22.52
2022-08-01T07:05:35.611Z,22.52
2022-08-01T07:06:35.589Z,22.61
2022-08-01T07:07:35.589Z,22.77
2022-08-01T07:08:35.570Z,22.89
2022-08-01T07:09:35.554Z,22.89
2022-08-01T07:10:35.540Z,22.99
2022-08-01T07:11:35.521Z,23.07
2022-08-01T07:12:35.522Z,23.10
2022-08-01T07:13:36.679Z,23.08
2022-08-01T07:14:36.498Z,23.17
2022-08-01T07:15:35.472Z,23.18
2022-08-01T07:16:35.469Z,23.14
2022-08-01T07:17:35.513Z,23.14
2022-08-01T07:18:35.484Z,23.23
2022-08-01T07:19:35.453Z,23.29
2022-08-01T07:20:41.286Z,23.25
2022-08-01T07:21:38.739Z,23.26
2022-08-01T07:22:35.408Z,23.26
2022-08-01T07:23:36.649Z,23.15
2022-08-01T07:24:35.770Z,23.03
2022-08-01T07:25:35.377Z,23.04
2022-08-01T07:26:35.370Z,23.04
2022-08-01T07:27:35.327Z,23.04
2022-08-01T07:28:35.330Z,23.08
2022-08-01T07:29:36.288Z,23.17
2022-08-01T07:30:36.236Z,23.01
2022-08-01T07:31:35.273Z,22.92
2022-08-01T07:32:35.260Z,23.04
2022-08-01T07:33:49.087Z,23.10
2022-08-01T07:34:36.238Z,23.18
2022-08-01T07:35:35.228Z,23.18
2022-08-01T07:36:35.200Z,23.14
2022-08-01T07:37:42.118Z,23.06
2022-08-01T07:38:36.178Z,22.77
2022-08-01T07:39:35.164Z,22.71
2022-08-01T07:40:35.152Z,22.74
2022-08-01T07:41:45.462Z,22.78
2022-08-01T07:42:36.154Z,22.81
2022-08-01T07:43:35.130Z,22.81
2022-08-01T07:44:35.124Z,22.77
2022-08-01T07:45:35.136Z,22.85
2022-08-01T07:46:35.090Z,22.86
2022-08-01T07:47:35.094Z,23.01
2022-08-01T07:48:35.058Z,23.14
2022-08-01T07:49:39.861Z,23.03
2022-08-01T07:50:36.027Z,23.11
2022-08-01T07:51:35.006Z,23.31
2022-08-01T07:52:35.008Z,23.59
2022-08-01T07:53:34.983Z,23.70
2022-08-01T07:54:35.171Z,23.73
2022-08-01T07:55:34.967Z,23.76
2022-08-01T07:56:34.956Z,23.85
2022-08-01T07:57:34.932Z,23.74
2022-08-01T07:58:34.921Z,23.70
2022-08-01T07:59:34.914Z,23.76
2022-08-01T08:00:34.901Z,23.74
2022-08-01T08:01:34.937Z,23.89
2022-08-01T08:02:34.873Z,23.91
2022-08-01T08:03:34.853Z,23.91
2022-08-01T08:04:34.842Z,23.94
2022-08-01T08:05:58.297Z,23.71
2022-08-01T08:06:35.813Z,23.91
2022-08-01T08:07:34.883Z,23.97
2022-08-01T08:08:34.794Z,24.08
2022-08-01T08:09:37.110Z,23.97
2022-08-01T08:10:34.773Z,24.16
2022-08-01T08:11:34.757Z,24.41
2022-08-01T08:12:35.708Z,24.34
2022-08-01T08:13:34.746Z,24.28
2022-08-01T08:14:34.745Z,24.40
2022-08-01T08:15:34.705Z,24.43
2022-08-01T08:16:35.647Z,24.51
2022-08-01T08:17:35.735Z,24.58
2022-08-01T08:18:34.661Z,24.60
2022-08-01T08:19:37.933Z,24.62
2022-08-01T08:20:34.631Z,24.74
2022-08-01T08:21:34.622Z,24.76
2022-08-01T08:22:34.610Z,24.75
2022-08-01T08:23:42.028Z,24.82
2022-08-01T08:24:35.590Z,24.84
2022-08-01T08:25:34.592Z,24.82
2022-08-01T08:26:34.568Z,24.84
2022-08-01T08:27:34.551Z,24.81
2022-08-01T08:28:34.543Z,24.70
2022-08-01T08:29:34.523Z,24.71
2022-08-01T08:30:34.513Z,24.60
2022-08-01T08:31:51.447Z,24.59
2022-08-01T08:32:35.484Z,24.28
2022-08-01T08:33:34.464Z,24.13
2022-08-01T08:34:34.456Z,23.89
2022-08-01T08:35:53.844Z,23.82
2022-08-01T08:36:35.431Z,23.61
2022-08-01T08:37:38.924Z,23.48
2022-08-01T08:38:34.406Z,23.34
2022-08-01T08:39:41.363Z,23.18
2022-08-01T08:40:35.393Z,23.15
2022-08-01T08:41:37.615Z,23.07
2022-08-01T08:42:34.346Z,23.04
2022-08-01T08:43:34.338Z,22.88
2022-08-01T08:44:34.338Z,22.74
2022-08-01T08:45:56.210Z,22.70
2022-08-01T08:46:35.310Z,22.56
2022-08-01T08:47:34.288Z,22.56
2022-08-01T08:48:34.307Z,22.59
2022-08-01T08:49:35.837Z,22.66
2022-08-01T08:50:34.250Z,22.61
2022-08-01T08:51:34.242Z,22.53
2022-08-01T08:52:34.227Z,22.64
2022-08-01T08:53:34.801Z,22.59
2022-08-01T08:54:34.658Z,22.76
2022-08-01T08:55:34.208Z,22.92
2022-08-01T08:56:35.204Z,23.01
2022-08-01T08:57:34.162Z,23.07
2022-08-01T08:58:34.145Z,23.13
2022-08-01T08:59:34.156Z,23.13
2022-08-01T09:00:34.177Z,23.17
2022-08-01T09:01:34.117Z,23.13
2022-08-01T09:02:34.118Z,22.96
2022-08-01T09:03:34.143Z,22.86
2022-08-01T09:04:34.124Z,22.91
2022-08-01T09:05:38.991Z,22.95
2022-08-01T09:06:35.049Z,22.91
2022-08-01T09:07:34.020Z,22.95
2022-08-01T09:08:34.029Z,22.91
2022-08-01T09:09:34.021Z,23.01
2022-08-01T09:10:34.020Z,23.07
2022-08-01T09:11:33.992Z,23.29
2022-08-01T09:12:33.962Z,23.67
2022-08-01T09:13:33.953Z,24.03
2022-08-01T09:14:33.950Z,24.07
2022-08-01T09:15:34.073Z,24.11
2022-08-01T09:16:33.916Z,24.07
2022-08-01T09:17:33.902Z,23.97
2022-08-01T09:18:33.895Z,24.03
2022-08-01T09:19:39.056Z,23.97
2022-08-01T09:20:34.855Z,23.92
2022-08-01T09:21:33.854Z,23.82
2022-08-01T09:22:33.836Z,23.81
2022-08-01T09:23:33.818Z,23.71
2022-08-01T09:24:33.809Z,23.73
2022-08-01T09:25:45.988Z,23.79
2022-08-01T09:26:34.808Z,23.73
2022-08-01T09:27:33.772Z,23.56
2022-08-01T09:28:33.758Z,23.48
2022-08-01T09:29:37.764Z,23.56
2022-08-01T09:30:34.737Z,23.89
2022-08-01T09:31:37.871Z,24.41
2022-08-01T09:32:36.439Z,24.65
2022-08-01T09:33:36.952Z,24.85
2022-08-01T09:34:33.681Z,25.00
2022-08-01T09:35:36.193Z,25.06
2022-08-01T09:36:34.664Z,25.28
2022-08-01T09:37:37.347Z,25.49
2022-08-01T09:38:33.635Z,25.53
2022-08-01T09:39:33.604Z,25.56
2022-08-01T09:40:33.605Z,25.58
2022-08-01T09:41:37.809Z,25.64
2022-08-01T09:42:34.575Z,25.61
2022-08-01T09:43:33.549Z,25.46
2022-08-01T09:44:43.056Z,25.21
2022-08-01T09:45:41.155Z,25.08
2022-08-01T09:46:34.528Z,24.91
2022-08-01T09:47:33.505Z,24.99
2022-08-01T09:48:33.503Z,25.14
2022-08-01T09:49:50.961Z,25.48
2022-08-01T09:50:34.480Z,25.53
2022-08-01T09:51:59.396Z,25.41
2022-08-01T09:52:34.451Z,25.31
2022-08-01T09:53:33.429Z,25.27
2022-08-01T09:54:33.420Z,25.64
2022-08-01T09:55:33.407Z,25.89
2022-08-01T09:56:33.407Z,25.85
2022-08-01T09:57:33.381Z,25.83
2022-08-01T09:58:33.361Z,26.00
2022-08-01T09:59:56.706Z,26.43
2022-08-01T10:00:45.302Z,26.75
2022-08-01T10:01:36.697Z,26.48
2022-08-01T10:02:34.108Z,26.08
2022-08-01T10:03:33.394Z,26.04
2022-08-01T10:04:33.290Z,26.10
2022-08-01T10:05:37.272Z,25.85
2022-08-01T10:06:33.276Z,25.67
2022-08-01T10:07:42.732Z,25.52
2022-08-01T10:08:34.245Z,25.18
2022-08-01T10:09:39.703Z,24.78
2022-08-01T10:10:34.255Z,24.43
2022-08-01T10:11:36.457Z,24.28
2022-08-01T10:14:55.821Z,24.03
2022-08-01T10:15:51.579Z,24.00
2022-08-01T10:16:53.652Z,24.00
2022-08-01T10:17:51.655Z,24.19
2022-08-01T10:18:52.536Z,24.33
2022-08-01T10:19:51.725Z,24.75
2022-08-01T10:20:51.550Z,25.08
2022-08-01T10:21:57.928Z,25.19
2022-08-01T10:22:52.543Z,25.49
2022-08-01T10:23:51.480Z,25.74
2022-08-01T10:24:51.477Z,26.08
2022-08-01T10:25:51.481Z,26.33
2022-08-01T10:26:51.447Z,26.26
2022-08-01T10:27:51.424Z,26.27
2022-08-01T10:28:51.423Z,26.24
2022-08-01T10:30:05.962Z,25.81
2022-08-01T10:30:53.118Z,25.63
2022-08-01T10:31:52.796Z,25.30
2022-08-01T10:32:51.420Z,25.43
2022-08-01T10:33:53.385Z,25.66
2022-08-01T10:34:51.335Z,25.85
2022-08-01T10:35:51.389Z,25.93
2022-08-01T10:36:51.320Z,26.10
2022-08-01T10:37:51.839Z,26.11
2022-08-01T10:38:52.253Z,26.08
2022-08-01T10:39:59.765Z,25.85
2022-08-01T10:40:52.269Z,25.86
2022-08-01T10:41:51.267Z,26.05
2022-08-01T10:42:51.229Z,26.19
2022-08-01T10:43:52.184Z,26.21
2022-08-01T10:44:51.206Z,26.12
2022-08-01T10:45:51.207Z,26.07
2022-08-01T10:46:51.210Z,26.07
2022-08-01T10:47:51.389Z,26.11
2022-08-01T10:48:52.194Z,25.92
2022-08-01T10:49:51.131Z,25.89
2022-08-01T10:50:51.134Z,26.23
2022-08-01T10:51:52.566Z,26.43
2022-08-01T10:52:51.103Z,26.46
2022-08-01T10:53:51.083Z,26.68
2022-08-01T10:54:52.444Z,26.80
2022-08-01T10:55:51.077Z,26.85
2022-08-01T10:56:51.404Z,26.89
2022-08-01T10:57:52.972Z,26.95
2022-08-01T10:58:51.016Z,27.00
2022-08-01T11:00:01.015Z,27.16
2022-08-01T11:00:52.005Z,27.12
2022-08-01T11:01:51.023Z,27.17
2022-08-01T11:02:50.969Z,27.42
2022-08-01T11:03:57.065Z,27.64
2022-08-01T11:04:51.942Z,27.80
2022-08-01T11:05:50.939Z,27.47
2022-08-01T11:06:50.920Z,27.47
2022-08-01T11:07:50.940Z,27.40
2022-08-01T11:08:50.891Z,27.47
2022-08-01T11:09:51.964Z,27.47
2022-08-01T11:10:50.869Z,27.72
2022-08-01T11:11:50.861Z,27.52
2022-08-01T11:12:50.833Z,27.07
2022-08-01T11:13:50.821Z,27.03
2022-08-01T11:14:55.573Z,26.93
2022-08-01T11:15:51.799Z,26.86
2022-08-01T11:16:50.793Z,26.95
2022-08-01T11:17:54.885Z,27.19
2022-08-01T11:18:50.766Z,27.40
2022-08-01T11:19:50.755Z,27.50
2022-08-01T11:20:50.738Z,27.49
2022-08-01T11:21:58.722Z,27.35
2022-08-01T11:22:51.707Z,27.16
2022-08-01T11:23:50.691Z,26.75
2022-08-01T11:24:51.124Z,26.58
2022-08-01T11:26:05.732Z,26.16
2022-08-01T11:26:52.621Z,25.82
2022-08-01T11:27:50.639Z,25.70
2022-08-01T11:29:17.841Z,25.61
2022-08-01T11:29:51.620Z,25.64
2022-08-01T11:30:50.612Z,25.55
2022-08-01T11:31:50.581Z,25.90
2022-08-01T11:33:11.010Z,26.43
2022-08-01T11:33:51.823Z,26.64
2022-08-01T11:34:50.573Z,26.58
2022-08-01T11:35:50.592Z,26.88
2022-08-01T11:36:59.498Z,27.17
2022-08-01T11:37:51.510Z,27.45
2022-08-01T11:38:50.492Z,27.40
2022-08-01T11:39:50.495Z,27.37
2022-08-01T11:40:50.485Z,27.49
2022-08-01T11:41:50.471Z,27.66
2022-08-01T11:42:50.498Z,27.94
2022-08-01T11:43:50.437Z,28.28
2022-08-01T11:44:50.417Z,28.47
2022-08-01T11:45:50.409Z,28.80
2022-08-01T11:46:51.180Z,28.86
2022-08-01T11:47:50.570Z,28.81
2022-08-01T11:48:50.408Z,28.74
2022-08-01T11:49:50.378Z,29.04
2022-08-01T11:50:50.342Z,29.00
2022-08-01T11:51:50.320Z,28.93
2022-08-01T11:52:50.321Z,28.96
2022-08-01T11:53:50.312Z,28.94
2022-08-01T11:54:50.287Z,28.64
2022-08-01T11:55:51.365Z,28.43
2022-08-01T11:56:50.260Z,28.31
2022-08-01T11:57:50.246Z,27.91
2022-08-01T11:58:50.245Z,27.85
2022-08-01T12:00:03.833Z,27.72
2022-08-01T12:00:51.226Z,27.53
2022-08-01T12:01:50.197Z,27.63
2022-08-01T12:02:50.275Z,27.47
2022-08-01T12:03:50.178Z,27.40
2022-08-01T12:04:50.162Z,27.64
2022-08-01T12:05:50.133Z,27.54
2022-08-01T12:06:50.985Z,27.72
2022-08-01T12:07:50.117Z,27.44
2022-08-01T12:08:50.119Z,27.40
2022-08-01T12:09:50.093Z,27.66
2022-08-01T12:10:50.132Z,27.35
2022-08-01T12:11:50.060Z,27.32
2022-08-01T12:12:50.061Z,27.44
2022-08-01T12:13:50.043Z,27.42
2022-08-01T12:14:50.028Z,27.20
2022-08-01T12:15:54.757Z,26.95
2022-08-01T12:16:51.003Z,26.82
2022-08-01T12:17:58.669Z,26.63
2022-08-01T12:18:51.004Z,26.60
2022-08-01T12:19:49.963Z,26.80
2022-08-01T12:20:56.631Z,27.00
2022-08-01T12:21:55.826Z,27.20
2022-08-01T12:22:50.922Z,27.41
2022-08-01T12:23:49.917Z,27.57
2022-08-01T12:24:49.897Z,27.52
2022-08-01T12:25:49.883Z,27.58
2022-08-01T12:26:49.867Z,27.79
2022-08-01T12:27:54.331Z,27.95
2022-08-01T12:28:50.848Z,27.98
2022-08-01T12:29:49.828Z,28.00
2022-08-01T12:30:49.824Z,28.19
2022-08-01T12:31:49.799Z,28.17
2022-08-01T12:32:49.790Z,28.10
2022-08-01T12:33:49.790Z,28.10
2022-08-01T12:34:49.762Z,28.12
2022-08-01T12:35:49.752Z,27.94
2022-08-01T12:36:49.742Z,27.76
2022-08-01T12:37:49.742Z,27.53
2022-08-01T12:38:49.729Z,27.45
2022-08-01T12:39:49.733Z,27.42
2022-08-01T12:40:52.404Z,27.73
2022-08-01T12:41:49.681Z,27.93
2022-08-01T12:42:49.677Z,28.20
2022-08-01T12:43:49.657Z,28.17
2022-08-01T12:44:49.635Z,27.98
2022-08-01T12:45:54.302Z,28.17
2022-08-01T12:46:50.617Z,28.25
2022-08-01T12:47:49.587Z,28.07
2022-08-01T12:48:49.658Z,27.87
2022-08-01T12:49:49.575Z,27.73
2022-08-01T12:50:49.553Z,27.44
2022-08-01T12:51:57.285Z,27.31
2022-08-01T12:52:50.535Z,27.25
2022-08-01T12:53:49.520Z,27.17
2022-08-01T12:54:49.502Z,27.10